createdAt,value
2022-09-13T00:01:21.620Z,98856.69
2022-09-13T00:02:55.074Z,98858.03
2022-09-13T00:04:28.238Z,98856.06
2022-09-13T00:06:09.529Z,98854.13
2022-09-13T00:07:43.000Z,98846.69
2022-09-13T00:09:16.342Z,98856.34
2022-09-13T00:10:50.205Z,98849.50
2022-09-13T00:12:24.713Z,98845.97
2022-09-13T00:13:59.280Z,98844.63
2022-09-13T00:15:33.119Z,98852.16
2022-09-13T00:17:06.342Z,98847.84
2022-09-13T00:18:39.530Z,98848.72
2022-09-13T00:20:36.734Z,98846.78
2022-09-13T00:22:09.858Z,98854.09
2022-09-13T00:23:45.972Z,98845.28
2022-09-13T00:25:19.883Z,98853.09
2022-09-13T00:26:53.357Z,98847.75
2022-09-13T00:28:26.894Z,98845.06
2022-09-13T00:29:59.995Z,98849.72
2022-09-13T00:31:33.217Z,98852.38
2022-09-13T00:33:06.734Z,98852.16
2022-09-13T00:34:39.992Z,98852.75
2022-09-13T00:36:15.384Z,98852.88
2022-09-13T00:37:48.753Z,98851.88
2022-09-13T00:39:22.992Z,98852.38
2022-09-13T00:40:55.115Z,98847.03
2022-09-13T00:42:29.492Z,98840.19
2022-09-13T00:44:06.545Z,98852.63
2022-09-13T00:45:40.551Z,98852.38
2022-09-13T00:47:17.778Z,98848.72
2022-09-13T00:48:54.382Z,98846.16
2022-09-13T00:50:34.312Z,98847.25
2022-09-13T00:52:14.369Z,98847.25
2022-09-13T00:53:52.203Z,98850.91
2022-09-13T00:55:29.101Z,98853.94
2022-09-13T00:57:05.325Z,98854.81
2022-09-13T00:58:42.643Z,98854.56
2022-09-13T01:00:20.551Z,98855.66
2022-09-13T01:01:56.426Z,98856.97
2022-09-13T01:03:33.279Z,98852.59
2022-09-13T01:05:07.827Z,98857.47
2022-09-13T01:06:42.925Z,98855.50
2022-09-13T01:08:23.098Z,98843.81
2022-09-13T01:09:56.585Z,98847.25
2022-09-13T01:11:38.023Z,98843.31
2022-09-13T01:13:15.181Z,98850.16
2022-09-13T01:14:49.516Z,98844.31
2022-09-13T01:16:25.270Z,98843.56
2022-09-13T01:17:59.537Z,98841.75
2022-09-13T01:19:32.174Z,98829.44
2022-09-13T01:21:45.003Z,98836.00
2022-09-13T01:23:36.371Z,98835.25
2022-09-13T01:25:44.916Z,98835.97
2022-09-13T01:27:34.622Z,98839.59
2022-09-13T01:29:41.422Z,98827.78
2022-09-13T01:31:26.557Z,98831.31
2022-09-13T01:33:22.806Z,98828.50
2022-09-13T01:35:07.104Z,98825.22
2022-09-13T01:37:03.346Z,98822.56
2022-09-13T01:38:53.492Z,98818.03
2022-09-13T01:40:42.027Z,98822.56
2022-09-13T01:42:22.283Z,98824.97
2022-09-13T01:43:58.605Z,98823.28
2022-09-13T01:45:42.306Z,98820.34
2022-09-13T01:47:25.829Z,98820.00
2022-09-13T01:49:08.796Z,98825.94
2022-09-13T01:50:47.381Z,98817.19
2022-09-13T01:52:28.895Z,98818.91
2022-09-13T01:54:18.474Z,98830.22
2022-09-13T01:55:57.119Z,98822.94
2022-09-13T01:57:34.695Z,98822.06
2022-09-13T01:59:15.425Z,98829.00
2022-09-13T02:00:56.085Z,98829.88
2022-09-13T02:02:37.040Z,98828.88
2022-09-13T02:04:13.647Z,98827.19
2022-09-13T02:05:51.300Z,98823.78
2022-09-13T02:07:32.701Z,98821.56
2022-09-13T02:09:12.977Z,98833.66
2022-09-13T02:10:50.002Z,98831.84
2022-09-13T02:12:25.743Z,98830.84
2022-09-13T02:14:02.872Z,98828.63
2022-09-13T02:15:41.850Z,98828.75
2022-09-13T02:17:18.550Z,98826.44
2022-09-13T02:19:00.129Z,98832.84
2022-09-13T02:20:37.545Z,98830.66
2022-09-13T02:22:15.925Z,98828.22
2022-09-13T02:23:53.512Z,98828.22
2022-09-13T02:25:28.793Z,98832.47
2022-09-13T02:27:06.791Z,98825.41
2022-09-13T02:28:45.478Z,98837.59
2022-09-13T02:30:20.485Z,98832.47
2022-09-13T02:31:59.779Z,98827.13
2022-09-13T02:33:36.877Z,98839.53
2022-09-13T02:35:15.887Z,98835.28
2022-09-13T02:36:50.897Z,98842.22
2022-09-13T02:38:27.765Z,98824.44
2022-09-13T02:40:03.415Z,98829.47
2022-09-13T02:41:44.642Z,98839.31
2022-09-13T02:43:24.161Z,98836.13
2022-09-13T02:45:01.776Z,98828.31
2022-09-13T02:46:52.926Z,98840.03
2022-09-13T02:48:37.365Z,98843.91
2022-09-13T02:50:25.129Z,98840.47
2022-09-13T02:52:08.565Z,98835.34
2022-09-13T02:53:51.066Z,98833.41
2022-09-13T02:55:31.698Z,98833.41
2022-09-13T02:57:11.650Z,98837.91
2022-09-13T02:58:51.142Z,98834.06
2022-09-13T03:00:24.385Z,98835.78
2022-09-13T03:02:03.171Z,98832.13
2022-09-13T03:03:36.837Z,98837.47
2022-09-13T03:05:09.835Z,98831.94
2022-09-13T03:06:44.477Z,98835.34
2022-09-13T03:08:19.515Z,98827.41
2022-09-13T03:09:56.443Z,98831.56
2022-09-13T03:11:41.026Z,98831.72
2022-09-13T03:13:35.993Z,98838.25
2022-09-13T03:15:21.565Z,98842.84
2022-09-13T03:17:13.621Z,98837.47
2022-09-13T03:18:58.737Z,98832.13
2022-09-13T03:20:43.053Z,98840.28
2022-09-13T03:22:34.109Z,98836.22
2022-09-13T03:24:15.657Z,98842.44
2022-09-13T03:26:09.604Z,98842.69
2022-09-13T03:27:53.906Z,98840.34
2022-09-13T03:29:32.409Z,98837.97
2022-09-13T03:31:11.581Z,98838.25
2022-09-13T03:32:53.684Z,98850.00
2022-09-13T03:34:35.715Z,98839.66
2022-09-13T03:36:16.603Z,98840.75
2022-09-13T03:37:57.841Z,98829.50
2022-09-13T03:39:38.249Z,98830.97
2022-09-13T03:41:16.633Z,98839.00
2022-09-13T03:42:53.850Z,98839.78
2022-09-13T03:44:29.078Z,98830.75
2022-09-13T03:46:05.458Z,98836.97
2022-09-13T03:47:42.389Z,98840.38
2022-09-13T03:49:17.563Z,98845.84
2022-09-13T03:50:51.897Z,98839.00
2022-09-13T03:52:24.853Z,98844.84
2022-09-13T03:54:03.569Z,98844.94
2022-09-13T03:55:42.403Z,98846.75
2022-09-13T03:57:16.818Z,98847.94
2022-09-13T03:58:51.804Z,98849.88
2022-09-13T04:00:25.184Z,98846.69
2022-09-13T04:01:57.716Z,98852.25
2022-09-13T04:03:30.917Z,98848.97
2022-09-13T04:05:03.041Z,98845.41
2022-09-13T04:06:36.180Z,98855.28
2022-09-13T04:08:10.201Z,98852.47
2022-09-13T04:09:45.988Z,98836.66
2022-09-13T04:11:21.345Z,98859.34
2022-09-13T04:12:55.985Z,98848.84
2022-09-13T04:14:29.321Z,98852.13
2022-09-13T04:16:03.542Z,98850.53
2022-09-13T04:17:37.260Z,98858.25
2022-09-13T04:19:09.408Z,98855.47
2022-09-13T04:20:42.665Z,98864.22
2022-09-13T04:22:15.030Z,98858.03
2022-09-13T04:23:51.321Z,98858.66
2022-09-13T04:25:26.003Z,98865.69
2022-09-13T04:27:00.187Z,98854.28
2022-09-13T04:28:33.413Z,98863.56
2022-09-13T04:30:07.683Z,98863.56
2022-09-13T04:31:39.863Z,98867.84
2022-09-13T04:33:13.433Z,98864.19
2022-09-13T04:34:47.757Z,98863.31
2022-09-13T04:36:21.326Z,98867.72
2022-09-13T04:37:56.968Z,98872.72
2022-09-13T04:39:29.238Z,98866.53
2022-09-13T04:41:03.749Z,98866.31
2022-09-13T04:42:37.036Z,98867.56
2022-09-13T04:44:10.212Z,98872.66
2022-09-13T04:45:43.679Z,98871.16
2022-09-13T04:47:18.473Z,98872.41
2022-09-13T04:48:51.928Z,98874.56
2022-09-13T04:50:26.593Z,98871.41
2022-09-13T04:51:59.975Z,98878.06
2022-09-13T04:53:33.809Z,98887.69
2022-09-13T04:55:07.919Z,98889.84
2022-09-13T04:56:42.574Z,98887.78
2022-09-13T04:58:16.243Z,98882.66
2022-09-13T04:59:49.407Z,98889.00
2022-09-13T05:01:27.536Z,98887.09
2022-09-13T05:03:01.624Z,98886.09
2022-09-13T05:04:35.034Z,98882.75
2022-09-13T05:06:08.892Z,98883.84
2022-09-13T05:07:42.079Z,98882.78
2022-09-13T05:09:16.015Z,98888.34
2022-09-13T05:10:48.767Z,98882.97
2022-09-13T05:12:23.321Z,98889.88
2022-09-13T05:13:58.500Z,98884.88
2022-09-13T05:15:32.304Z,98888.81
2022-09-13T05:17:06.249Z,98884.69
2022-09-13T05:18:44.498Z,98882.00
2022-09-13T05:20:18.854Z,98883.44
2022-09-13T05:21:51.967Z,98885.38
2022-09-13T05:23:26.650Z,98869.69
2022-09-13T05:24:59.793Z,98876.13
2022-09-13T05:26:32.125Z,98873.38
2022-09-13T05:28:06.594Z,98868.25
2022-09-13T05:29:40.019Z,98874.81
2022-09-13T05:31:17.266Z,98867.75
2022-09-13T05:32:50.424Z,98859.66
2022-09-13T05:34:23.813Z,98872.59
2022-09-13T05:35:57.611Z,98874.91
2022-09-13T05:37:31.104Z,98865.63
2022-09-13T05:39:31.945Z,98865.84
2022-09-13T05:41:00.175Z,98859.47
2022-09-13T05:42:33.375Z,98870.72
2022-09-13T05:44:12.853Z,98862.31
2022-09-13T05:45:46.871Z,98866.03
2022-09-13T05:47:20.430Z,98864.16
2022-09-13T05:48:53.668Z,98847.88
2022-09-13T05:50:54.156Z,98859.75
2022-09-13T05:52:19.979Z,98865.69
2022-09-13T05:53:55.005Z,98863.97
2022-09-13T05:55:28.187Z,98860.50
2022-09-13T05:57:01.665Z,98872.72
2022-09-13T05:58:35.431Z,98869.00
2022-09-13T06:00:11.913Z,98874.31
2022-09-13T06:01:48.707Z,98866.59
2022-09-13T06:03:21.918Z,98870.72
2022-09-13T06:04:55.074Z,98865.72
2022-09-13T06:06:28.694Z,98867.44
2022-09-13T06:08:01.803Z,98861.25
2022-09-13T06:09:35.255Z,98862.94
2022-09-13T06:11:10.005Z,98860.19
2022-09-13T06:12:43.502Z,98859.44
2022-09-13T06:14:16.698Z,98869.94
2022-09-13T06:15:51.400Z,98860.47
2022-09-13T06:17:24.527Z,98854.94
2022-09-13T06:18:59.379Z,98866.66
2022-09-13T06:20:32.530Z,98859.19
2022-09-13T06:22:05.832Z,98860.59
2022-09-13T06:23:39.526Z,98858.72
2022-09-13T06:25:13.054Z,98865.66
2022-09-13T06:26:46.228Z,98864.19
2022-09-13T06:28:21.201Z,98850.94
2022-09-13T06:29:54.511Z,98865.69
2022-09-13T06:31:30.318Z,98863.38
2022-09-13T06:33:04.433Z,98865.41
2022-09-13T06:34:37.533Z,98869.63
2022-09-13T06:36:13.799Z,98861.03
2022-09-13T06:37:47.293Z,98866.78
2022-09-13T06:39:20.491Z,98876.22
2022-09-13T06:41:01.554Z,98876.38
2022-09-13T06:42:35.731Z,98879.91
2022-09-13T06:44:09.636Z,98883.28
2022-09-13T06:45:44.818Z,98881.16
2022-09-13T06:47:19.274Z,98881.84
2022-09-13T06:48:52.774Z,98885.69
2022-09-13T06:50:26.292Z,98889.94
2022-09-13T06:51:59.432Z,98890.47
2022-09-13T06:53:34.119Z,98899.69
2022-09-13T06:55:12.086Z,98897.38
2022-09-13T06:56:46.233Z,98901.66
2022-09-13T06:58:19.401Z,98907.44
2022-09-13T06:59:52.532Z,98914.66
2022-09-13T07:01:28.292Z,98894.47
2022-09-13T07:03:03.207Z,98904.13
2022-09-13T07:04:36.324Z,98899.47
2022-09-13T07:06:11.689Z,98907.44
2022-09-13T07:07:44.874Z,98901.69
2022-09-13T07:09:20.432Z,98908.19
2022-09-13T07:10:58.116Z,98899.66
2022-09-13T07:12:31.230Z,98904.47
2022-09-13T07:14:06.792Z,98905.06
2022-09-13T07:15:40.326Z,98919.22
2022-09-13T07:17:13.456Z,98922.34
2022-09-13T07:18:53.046Z,98916.78
2022-09-13T07:20:26.254Z,98912.16
2022-09-13T07:21:59.847Z,98903.31
2022-09-13T07:23:33.371Z,98909.94
2022-09-13T07:25:07.319Z,98921.72
2022-09-13T07:26:39.651Z,98917.66
2022-09-13T07:28:12.896Z,98923.00
2022-09-13T07:29:45.989Z,98910.06
2022-09-13T07:31:21.500Z,98916.81
2022-09-13T07:32:54.725Z,98916.09
2022-09-13T07:34:29.604Z,98917.38
2022-09-13T07:36:06.305Z,98909.94
2022-09-13T07:37:39.409Z,98916.69
2022-09-13T07:39:16.404Z,98912.56
2022-09-13T07:40:55.967Z,98911.91
2022-09-13T07:42:29.078Z,98911.41
